createdAt,value
2022-12-31T00:01:50.692Z,47.00
2022-12-31T00:04:17.649Z,42.95
2022-12-31T00:06:44.708Z,48.05
2022-12-31T00:09:11.708Z,40.15
2022-12-31T00:11:38.901Z,47.75
2022-12-31T00:14:06.092Z,42.30
2022-12-31T00:16:37.006Z,40.85
2022-12-31T00:19:04.784Z,42.08
2022-12-31T00:21:32.593Z,43.85
2022-12-31T00:23:59.666Z,41.22
2022-12-31T00:26:28.284Z,44.80
2022-12-31T00:28:55.915Z,40.58
2022-12-31T00:31:24.550Z,41.60
2022-12-31T00:33:51.677Z,40.70
2022-12-31T00:36:22.477Z,48.80
2022-12-31T00:38:50.323Z,44.97
2022-12-31T00:41:17.690Z,49.95
2022-12-31T00:43:44.878Z,45.45
2022-12-31T00:46:12.091Z,47.47
2022-12-31T00:48:39.316Z,45.08
2022-12-31T00:51:07.743Z,46.65
2022-12-31T00:53:34.784Z,45.13
2022-12-31T00:56:02.220Z,36.50
2022-12-31T00:58:29.257Z,41.00
2022-12-31T01:00:56.214Z,38.78
2022-12-31T01:03:23.568Z,35.30
2022-12-31T01:05:50.640Z,40.83
2022-12-31T01:08:18.119Z,38.78
2022-12-31T01:11:08.177Z,37.00
2022-12-31T01:13:35.135Z,41.65
2022-12-31T01:16:12.161Z,34.33
2022-12-31T01:18:39.359Z,34.65
2022-12-31T01:21:07.948Z,40.03
2022-12-31T01:23:35.071Z,35.65
2022-12-31T01:26:06.233Z,34.35
2022-12-31T01:28:33.549Z,37.72
2022-12-31T01:31:04.328Z,41.92
2022-12-31T01:33:31.355Z,38.90
2022-12-31T01:36:02.945Z,38.60
2022-12-31T01:38:29.929Z,35.28
2022-12-31T01:40:56.825Z,31.00
2022-12-31T01:43:23.812Z,35.33
2022-12-31T01:45:52.748Z,34.08
2022-12-31T01:48:25.287Z,37.55
2022-12-31T01:50:52.604Z,30.35
2022-12-31T01:53:19.559Z,31.13
2022-12-31T01:55:58.005Z,32.15
2022-12-31T01:58:27.917Z,33.63
2022-12-31T02:00:54.891Z,28.00
2022-12-31T02:03:22.354Z,35.90
2022-12-31T02:06:20.433Z,35.17
2022-12-31T02:08:47.741Z,32.70
2022-12-31T02:11:33.117Z,34.53
2022-12-31T02:14:03.453Z,33.10
2022-12-31T02:16:48.979Z,28.30
2022-12-31T02:19:36.995Z,30.52
2022-12-31T02:22:22.936Z,36.95
2022-12-31T02:25:08.859Z,39.78
2022-12-31T02:27:38.676Z,33.72
2022-12-31T02:30:19.745Z,40.67
2022-12-31T02:32:58.132Z,37.40
2022-12-31T02:35:29.522Z,38.20
2022-12-31T02:38:03.432Z,39.90
2022-12-31T02:40:30.555Z,33.17
2022-12-31T02:42:57.467Z,33.47
2022-12-31T02:45:28.782Z,35.25
2022-12-31T02:47:55.679Z,33.05
2022-12-31T02:50:40.723Z,34.97
2022-12-31T02:53:32.896Z,29.83
2022-12-31T02:56:14.332Z,33.65
2022-12-31T02:59:16.498Z,32.65
2022-12-31T03:02:02.848Z,32.15
2022-12-31T03:04:33.292Z,34.45
2022-12-31T03:07:07.334Z,30.92
2022-12-31T03:09:34.951Z,33.35
2022-12-31T03:12:20.306Z,30.40
2022-12-31T03:14:47.417Z,29.73
2022-12-31T03:17:14.385Z,32.00
2022-12-31T03:19:59.750Z,33.63
2022-12-31T03:22:29.858Z,27.92
2022-12-31T03:25:22.083Z,29.98
2022-12-31T03:27:50.043Z,31.15
2022-12-31T03:30:17.678Z,30.52
2022-12-31T03:32:45.326Z,28.38
2022-12-31T03:35:13.523Z,29.75
2022-12-31T03:37:41.215Z,27.83
2022-12-31T03:40:10.407Z,33.83
2022-12-31T03:42:37.665Z,31.08
2022-12-31T03:45:04.822Z,34.05
2022-12-31T03:47:31.779Z,30.35
2022-12-31T03:49:58.716Z,40.03
2022-12-31T03:52:25.596Z,36.35
2022-12-31T03:54:52.545Z,37.25
2022-12-31T03:57:19.556Z,36.80
2022-12-31T03:59:46.442Z,35.65
2022-12-31T04:02:13.527Z,31.58
2022-12-31T04:04:40.623Z,33.33
2022-12-31T04:07:07.555Z,33.05
2022-12-31T04:09:34.493Z,27.80
2022-12-31T04:12:01.437Z,31.27
2022-12-31T04:14:28.400Z,26.02
2022-12-31T04:16:55.295Z,30.38
2022-12-31T04:19:22.251Z,28.40
2022-12-31T04:21:49.247Z,27.02
2022-12-31T04:24:16.190Z,31.15
2022-12-31T04:26:44.235Z,34.60
2022-12-31T04:29:11.294Z,29.73
2022-12-31T04:31:38.274Z,38.17
2022-12-31T04:34:05.309Z,31.40
2022-12-31T04:36:32.256Z,36.58
2022-12-31T04:38:59.176Z,32.55
2022-12-31T04:41:27.270Z,32.08
2022-12-31T04:43:55.540Z,33.65
2022-12-31T04:46:30.202Z,36.25
2022-12-31T04:48:57.266Z,34.92
2022-12-31T04:51:24.673Z,35.45
2022-12-31T04:53:51.648Z,34.08
2022-12-31T04:56:18.621Z,34.95
2022-12-31T04:58:45.703Z,33.42
2022-12-31T05:01:12.736Z,39.55
2022-12-31T05:03:39.906Z,31.08
2022-12-31T05:06:15.814Z,31.63
2022-12-31T05:08:42.858Z,33.28
2022-12-31T05:11:10.039Z,33.03
2022-12-31T05:13:37.091Z,29.10
2022-12-31T05:16:04.280Z,29.00
2022-12-31T05:18:31.602Z,30.95
2022-12-31T05:20:58.570Z,32.97
2022-12-31T05:23:25.608Z,34.55
2022-12-31T05:25:52.524Z,35.20
2022-12-31T05:28:19.653Z,27.25
2022-12-31T05:30:49.055Z,28.77
2022-12-31T05:33:16.352Z,32.78
2022-12-31T05:35:43.239Z,32.65
2022-12-31T05:38:10.207Z,33.00
2022-12-31T05:40:37.209Z,30.17
2022-12-31T05:43:04.186Z,32.35
2022-12-31T05:45:31.515Z,32.83
2022-12-31T05:47:58.667Z,33.65
2022-12-31T05:50:25.619Z,31.58
2022-12-31T05:52:56.083Z,34.83
2022-12-31T05:55:23.137Z,35.13
2022-12-31T05:57:50.045Z,32.35
2022-12-31T06:00:17.299Z,31.85
2022-12-31T06:02:45.268Z,32.72
2022-12-31T06:05:12.412Z,32.10
2022-12-31T06:07:39.476Z,34.88
2022-12-31T06:10:06.978Z,32.28
2022-12-31T06:12:34.056Z,30.17
2022-12-31T06:15:00.998Z,30.08
2022-12-31T06:17:32.156Z,28.67
2022-12-31T06:20:00.026Z,27.23
2022-12-31T06:22:26.960Z,34.03
2022-12-31T06:24:53.962Z,33.20
2022-12-31T06:27:20.878Z,31.10
2022-12-31T06:29:48.285Z,31.83
2022-12-31T06:32:16.109Z,30.13
2022-12-31T06:34:43.103Z,31.55
2022-12-31T06:37:10.022Z,34.83
2022-12-31T06:39:36.935Z,32.63
2022-12-31T06:42:03.971Z,34.22
2022-12-31T06:44:30.982Z,27.92
2022-12-31T06:46:58.005Z,28.00
2022-12-31T06:49:25.047Z,31.63
2022-12-31T06:51:52.001Z,37.60
2022-12-31T06:54:19.435Z,31.60
2022-12-31T06:56:46.567Z,37.90
2022-12-31T06:59:23.243Z,36.20
2022-12-31T07:02:19.391Z,34.63
2022-12-31T07:05:05.983Z,36.08
2022-12-31T07:07:48.107Z,36.33
2022-12-31T07:10:27.296Z,31.90
2022-12-31T07:13:05.306Z,34.58
2022-12-31T07:15:47.562Z,35.67
2022-12-31T07:18:33.288Z,34.30
2022-12-31T07:21:00.653Z,34.13
2022-12-31T07:23:27.892Z,36.55
2022-12-31T07:26:06.502Z,35.00
2022-12-31T07:28:45.595Z,36.13
2022-12-31T07:31:34.893Z,34.95
2022-12-31T07:34:16.238Z,39.15
2022-12-31T07:37:21.662Z,36.33
2022-12-31T07:40:06.859Z,37.13
2022-12-31T07:42:46.535Z,36.70
2022-12-31T07:45:27.272Z,37.30
2022-12-31T07:48:02.831Z,32.30
2022-12-31T07:50:30.668Z,41.65
2022-12-31T07:52:57.889Z,44.88
2022-12-31T07:55:24.994Z,42.50
2022-12-31T07:58:04.619Z,38.20
2022-12-31T08:00:31.693Z,37.05
2022-12-31T08:03:35.824Z,44.83
2022-12-31T08:06:15.521Z,37.80
2022-12-31T08:08:46.809Z,48.90
2022-12-31T08:11:34.623Z,45.33
2022-12-31T08:14:02.691Z,40.45
2022-12-31T08:16:31.411Z,34.75
2022-12-31T08:18:58.771Z,35.85
2022-12-31T08:21:35.004Z,36.20
2022-12-31T08:24:26.589Z,45.47
2022-12-31T08:27:00.958Z,43.95
2022-12-31T08:29:34.101Z,47.00
2022-12-31T08:32:07.404Z,40.60
2022-12-31T08:35:06.713Z,38.03
2022-12-31T08:38:04.725Z,40.75
2022-12-31T08:40:35.181Z,42.53
2022-12-31T08:43:33.416Z,38.40
2022-12-31T08:46:00.585Z,43.00
2022-12-31T08:48:40.544Z,40.33
2022-12-31T08:51:13.275Z,41.15
2022-12-31T08:53:40.484Z,41.50
2022-12-31T08:56:41.403Z,46.97
2022-12-31T08:59:15.323Z,41.25
2022-12-31T09:01:54.699Z,38.03
2022-12-31T09:04:21.745Z,42.30
2022-12-31T09:06:54.139Z,36.15
2022-12-31T09:09:28.381Z,37.55
2022-12-31T09:12:15.651Z,44.80
2022-12-31T09:14:50.465Z,41.88
2022-12-31T09:17:36.171Z,33.10
2022-12-31T09:20:03.673Z,36.55
2022-12-31T09:22:31.044Z,41.65
2022-12-31T09:25:01.321Z,43.45
2022-12-31T09:27:28.939Z,46.10
2022-12-31T09:30:05.087Z,39.40
2022-12-31T09:32:42.946Z,44.33
2022-12-31T09:35:31.187Z,39.80
2022-12-31T09:38:07.913Z,40.13
2022-12-31T09:41:01.526Z,40.33
2022-12-31T09:43:31.784Z,44.17
2022-12-31T09:46:23.719Z,38.08
2022-12-31T09:49:03.045Z,37.55
2022-12-31T09:51:30.931Z,32.83
2022-12-31T09:54:19.732Z,38.33
2022-12-31T09:57:06.976Z,33.33
2022-12-31T09:59:41.426Z,31.80
2022-12-31T10:02:33.529Z,32.17
2022-12-31T10:05:12.985Z,33.58
2022-12-31T10:07:53.646Z,33.30
2022-12-31T10:10:57.863Z,28.73
2022-12-31T10:13:49.787Z,35.92
2022-12-31T10:16:21.801Z,36.75
2022-12-31T10:19:00.574Z,35.38
2022-12-31T10:22:05.161Z,37.97
2022-12-31T10:27:09.431Z,29.90
2022-12-31T10:29:58.267Z,36.38
2022-12-31T10:32:45.935Z,31.98
2022-12-31T10:35:15.408Z,27.17
2022-12-31T10:38:19.499Z,26.63
2022-12-31T10:40:52.546Z,26.42
2022-12-31T10:43:58.065Z,32.05
2022-12-31T10:46:37.439Z,29.20
2022-12-31T10:49:43.514Z,30.88
2022-12-31T10:52:38.167Z,33.03
2022-12-31T10:55:26.636Z,28.77
2022-12-31T10:58:16.908Z,34.88
2022-12-31T11:00:53.618Z,29.67
2022-12-31T11:03:35.844Z,32.80
2022-12-31T11:06:17.736Z,33.75
2022-12-31T11:09:19.690Z,33.03
2022-12-31T11:12:05.824Z,28.63
2022-12-31T11:14:38.848Z,31.98
2022-12-31T11:17:27.501Z,38.72
2022-12-31T11:20:15.864Z,31.50
2022-12-31T11:23:01.820Z,33.22
2022-12-31T11:25:30.920Z,30.63
2022-12-31T11:28:12.979Z,36.83
2022-12-31T11:30:59.567Z,34.58
2022-12-31T11:33:35.589Z,39.50
2022-12-31T11:36:09.694Z,40.92
2022-12-31T11:38:41.126Z,38.20
2022-12-31T11:41:13.060Z,44.75
2022-12-31T11:43:47.788Z,33.30
2022-12-31T11:46:33.677Z,39.17
2022-12-31T11:49:45.320Z,34.00
2022-12-31T11:52:49.020Z,34.33
2022-12-31T11:55:34.435Z,35.20
2022-12-31T11:58:22.698Z,31.15
2022-12-31T12:00:58.508Z,31.60
2022-12-31T12:03:25.727Z,29.52
2022-12-31T12:05:52.804Z,40.33
2022-12-31T12:08:19.870Z,33.85
2022-12-31T12:10:48.593Z,37.95
2022-12-31T12:13:24.195Z,41.28
2022-12-31T12:15:53.255Z,37.50
2022-12-31T12:18:24.988Z,35.67
2022-12-31T12:20:52.029Z,42.20
2022-12-31T12:23:24.794Z,35.72
2022-12-31T12:25:51.944Z,33.87
2022-12-31T12:28:23.790Z,33.58
2022-12-31T12:30:55.939Z,32.63
2022-12-31T12:33:23.094Z,38.33
2022-12-31T12:35:50.206Z,35.67
2022-12-31T12:38:21.394Z,38.67
2022-12-31T12:41:02.437Z,46.60
2022-12-31T12:43:36.262Z,34.75
2022-12-31T12:46:04.426Z,36.08
2022-12-31T12:48:42.733Z,33.40
2022-12-31T12:51:33.080Z,32.70
2022-12-31T12:54:10.430Z,39.53
2022-12-31T12:56:39.970Z,35.92
2022-12-31T12:59:38.892Z,37.88
2022-12-31T13:02:11.984Z,39.80
2022-12-31T13:04:51.752Z,38.40
2022-12-31T13:07:58.771Z,47.70
2022-12-31T13:11:06.407Z,43.22
2022-12-31T13:13:59.470Z,47.28
2022-12-31T13:16:47.859Z,41.97
2022-12-31T13:19:36.393Z,44.45
2022-12-31T13:22:14.898Z,37.63
2022-12-31T13:25:06.308Z,38.92
2022-12-31T13:27:41.019Z,37.30
2022-12-31T13:30:31.567Z,35.38
2022-12-31T13:33:04.021Z,31.02
2022-12-31T13:35:47.431Z,33.47
2022-12-31T13:38:21.991Z,38.03
2022-12-31T13:40:54.114Z,40.85
2022-12-31T13:43:33.399Z,40.10
2022-12-31T13:46:12.614Z,35.70
2022-12-31T13:48:51.928Z,45.88
2022-12-31T13:51:42.937Z,40.38
2022-12-31T13:54:22.683Z,46.60
2022-12-31T13:56:49.763Z,54.67
2022-12-31T13:59:34.798Z,51.20
2022-12-31T14:02:23.654Z,44.15
2022-12-31T14:04:53.389Z,55.60
2022-12-31T14:07:35.449Z,50.90
2022-12-31T14:10:14.024Z,38.90
2022-12-31T14:12:50.250Z,37.88
2022-12-31T14:15:35.858Z,37.85
2022-12-31T14:18:25.963Z,29.98
2022-12-31T14:21:06.739Z,34.35
2022-12-31T14:24:01.157Z,34.17
2022-12-31T14:26:35.074Z,39.05
2022-12-31T14:29:11.378Z,39.55
2022-12-31T14:31:50.361Z,36.85
2022-12-31T14:34:29.660Z,38.58
2022-12-31T14:37:21.468Z,39.58
2022-12-31T14:40:10.440Z,36.85
2022-12-31T14:42:52.175Z,40.92
2022-12-31T14:45:25.225Z,34.35
2022-12-31T14:48:01.215Z,34.20
2022-12-31T14:50:29.218Z,35.67
2022-12-31T14:53:08.027Z,34.95
2022-12-31T14:55:39.094Z,39.42
2022-12-31T14:58:28.211Z,35.75
2022-12-31T15:01:00.649Z,33.70
2022-12-31T15:03:45.468Z,34.08
2022-12-31T15:06:48.198Z,31.50
2022-12-31T15:09:47.576Z,35.92
2022-12-31T15:12:28.445Z,30.75
2022-12-31T15:15:14.059Z,37.65
2022-12-31T15:18:06.364Z,29.63
2022-12-31T15:21:03.572Z,28.27
2022-12-31T15:23:35.910Z,34.05
2022-12-31T15:26:03.038Z,33.50
2022-12-31T15:28:33.964Z,30.02
2022-12-31T15:31:20.289Z,38.80
2022-12-31T15:34:03.233Z,36.22
2022-12-31T15:36:39.095Z,33.17
2022-12-31T15:39:11.997Z,31.58
2022-12-31T15:42:18.781Z,34.27
2022-12-31T15:44:50.399Z,29.17
2022-12-31T15:47:50.151Z,31.83
2022-12-31T15:50:24.992Z,30.83
2022-12-31T15:52:57.970Z,29.33
2022-12-31T15:55:33.370Z,27.90
2022-12-31T15:58:05.910Z,35.78
2022-12-31T16:01:23.291Z,39.53
2022-12-31T16:03:56.961Z,50.30
2022-12-31T16:06:24.440Z,43.45
2022-12-31T16:08:51.878Z,51.05
2022-12-31T16:11:20.485Z,46.70
2022-12-31T16:13:50.114Z,45.85
2022-12-31T16:16:25.767Z,42.17
2022-12-31T16:18:53.419Z,40.45
2022-12-31T16:21:35.723Z,35.38
2022-12-31T16:24:31.131Z,32.28
2022-12-31T16:27:03.201Z,37.35
2022-12-31T16:29:31.025Z,38.25
2022-12-31T16:31:58.252Z,40.45
2022-12-31T16:34:26.987Z,48.03
2022-12-31T16:36:55.728Z,40.38
2022-12-31T16:39:26.055Z,41.67
2022-12-31T16:42:06.964Z,33.95
2022-12-31T16:44:34.044Z,35.25
2022-12-31T16:47:01.914Z,31.50
2022-12-31T16:49:30.934Z,33.88
2022-12-31T16:52:03.837Z,31.48
2022-12-31T16:54:34.611Z,30.43
2022-12-31T16:57:03.807Z,29.92
2022-12-31T16:59:36.288Z,26.48
2022-12-31T17:02:07.003Z,33.10
2022-12-31T17:04:35.216Z,34.63
2022-12-31T17:07:28.171Z,35.55
2022-12-31T17:10:07.551Z,34.47
2022-12-31T17:13:00.623Z,29.15
2022-12-31T17:15:29.339Z,36.20
2022-12-31T17:17:58.604Z,37.63
2022-12-31T17:20:28.027Z,38.72
2022-12-31T17:23:00.003Z,35.58
2022-12-31T17:25:31.195Z,40.00
2022-12-31T17:28:03.601Z,29.88
2022-12-31T17:30:31.648Z,33.42
2022-12-31T17:33:08.308Z,36.38
2022-12-31T17:35:37.061Z,37.60
2022-12-31T17:38:22.540Z,31.48
2022-12-31T17:40:54.375Z,35.53
2022-12-31T17:43:22.902Z,33.03
2022-12-31T17:45:53.058Z,30.27
2022-12-31T17:48:20.423Z,33.92
2022-12-31T17:50:58.202Z,35.47
2022-12-31T17:53:25.310Z,31.17
2022-12-31T17:55:53.898Z,28.13
2022-12-31T17:58:33.826Z,33.83
2022-12-31T18:01:01.047Z,29.55
2022-12-31T18:03:28.218Z,34.25
2022-12-31T18:05:55.415Z,33.65
2022-12-31T18:08:22.491Z,37.20
2022-12-31T18:10:49.580Z,33.28
2022-12-31T18:13:21.426Z,28.88
2022-12-31T18:15:48.666Z,26.80
2022-12-31T18:18:29.221Z,94.28
2022-12-31T18:21:01.428Z,115.43
2022-12-31T18:23:33.221Z,62.90
2022-12-31T18:26:00.409Z,42.53
2022-12-31T18:28:27.487Z,39.75
2022-12-31T18:30:54.665Z,32.30
2022-12-31T18:33:25.926Z,38.03
2022-12-31T18:36:10.023Z,35.17
2022-12-31T18:38:37.659Z,33.90
2022-12-31T18:41:04.914Z,36.20
2022-12-31T18:43:32.084Z,35.35
2022-12-31T18:45:59.299Z,34.80
2022-12-31T18:48:26.428Z,34.63
2022-12-31T18:50:53.418Z,33.38
2022-12-31T18:53:22.407Z,41.22
2022-12-31T18:55:55.936Z,37.20
2022-12-31T18:58:23.256Z,45.85
2022-12-31T19:00:50.634Z,35.17
2022-12-31T19:03:19.751Z,40.08
2022-12-31T19:05:49.932Z,37.75
2022-12-31T19:08:18.121Z,42.85
2022-12-31T19:10:45.258Z,37.30
2022-12-31T19:13:13.256Z,35.47
2022-12-31T19:15:45.159Z,37.65
2022-12-31T19:18:12.313Z,47.30
2022-12-31T19:20:41.337Z,49.30
2022-12-31T19:23:19.597Z,41.33
2022-12-31T19:25:47.418Z,43.90
2022-12-31T19:28:22.144Z,46.85
2022-12-31T19:30:49.185Z,47.75
2022-12-31T19:33:16.348Z,43.90
2022-12-31T19:35:43.856Z,41.15
2022-12-31T19:38:32.591Z,39.60
2022-12-31T19:40:59.871Z,38.90
2022-12-31T19:43:26.966Z,42.20
2022-12-31T19:45:54.205Z,43.28
2022-12-31T19:48:27.216Z,39.65
2022-12-31T19:50:59.329Z,41.35
2022-12-31T19:53:27.144Z,45.40
2022-12-31T19:55:54.203Z,44.28
2022-12-31T19:58:25.739Z,53.42
2022-12-31T20:00:58.249Z,62.97
2022-12-31T20:03:29.070Z,57.55
2022-12-31T20:06:07.308Z,56.95
2022-12-31T20:08:35.363Z,65.95
2022-12-31T20:11:20.514Z,68.40
2022-12-31T20:13:48.044Z,61.28
2022-12-31T20:16:17.281Z,61.97
2022-12-31T20:18:45.500Z,60.10
2022-12-31T20:21:14.375Z,55.63
2022-12-31T20:23:41.551Z,50.67
2022-12-31T20:26:08.833Z,61.05
2022-12-31T20:28:36.863Z,54.85
2022-12-31T20:31:09.741Z,63.35
2022-12-31T20:33:36.960Z,50.70
2022-12-31T20:36:05.006Z,51.65
2022-12-31T20:38:32.149Z,49.60
2022-12-31T20:41:13.104Z,46.25
2022-12-31T20:43:40.317Z,42.30
2022-12-31T20:46:14.299Z,45.95
2022-12-31T20:48:42.175Z,48.20
2022-12-31T20:51:10.655Z,52.72
2022-12-31T20:53:37.835Z,46.22
2022-12-31T20:56:06.107Z,44.95
2022-12-31T20:58:33.149Z,44.28
2022-12-31T21:01:00.554Z,47.85
2022-12-31T21:04:03.762Z,48.25
2022-12-31T21:06:15.018Z,51.03
2022-12-31T21:08:42.229Z,51.55
2022-12-31T21:11:27.987Z,54.05
2022-12-31T21:13:55.917Z,51.78
2022-12-31T21:16:23.229Z,57.35
2022-12-31T21:18:50.422Z,52.47
2022-12-31T21:21:18.052Z,54.42
2022-12-31T21:23:45.376Z,56.53
2022-12-31T21:26:12.544Z,55.60
2022-12-31T21:28:39.607Z,53.60
2022-12-31T21:31:07.460Z,56.75
2022-12-31T21:33:34.704Z,57.60
2022-12-31T21:36:04.816Z,60.15
2022-12-31T21:38:32.073Z,55.92
2022-12-31T21:41:06.054Z,59.22
2022-12-31T21:43:33.219Z,67.40
2022-12-31T21:46:04.355Z,63.50
2022-12-31T21:48:31.715Z,51.80
2022-12-31T21:51:07.431Z,60.28
2022-12-31T21:53:37.267Z,60.60
2022-12-31T21:56:13.689Z,54.58
2022-12-31T21:58:42.196Z,58.65
2022-12-31T22:01:33.722Z,52.80
2022-12-31T22:04:00.990Z,56.88
2022-12-31T22:06:28.027Z,57.90
2022-12-31T22:08:55.669Z,58.50
2022-12-31T22:11:24.912Z,60.72
2022-12-31T22:13:52.046Z,68.57
2022-12-31T22:16:20.515Z,76.13
2022-12-31T22:18:47.883Z,75.38
2022-12-31T22:21:19.207Z,70.00
2022-12-31T22:23:54.158Z,67.82
2022-12-31T22:26:23.651Z,66.43
2022-12-31T22:28:50.897Z,68.28
2022-12-31T22:31:19.614Z,61.97
2022-12-31T22:33:46.646Z,57.25
2022-12-31T22:36:15.842Z,57.72
2022-12-31T22:38:42.861Z,60.50
2022-12-31T22:41:19.997Z,57.80
2022-12-31T22:43:49.242Z,59.03
2022-12-31T22:46:18.182Z,52.65
2022-12-31T22:48:45.322Z,57.40
2022-12-31T22:51:13.071Z,50.40
2022-12-31T22:53:41.444Z,50.50
2022-12-31T22:56:09.003Z,43.85
2022-12-31T22:58:36.177Z,45.28
2022-12-31T23:01:16.489Z,50.30
2022-12-31T23:03:43.619Z,50.58
2022-12-31T23:06:10.795Z,51.63
2022-12-31T23:08:37.919Z,55.75
2022-12-31T23:11:09.739Z,58.83
2022-12-31T23:14:00.225Z,67.88
2022-12-31T23:16:47.186Z,81.78
2022-12-31T23:19:33.141Z,96.00
2022-12-31T23:22:18.837Z,111.68
2022-12-31T23:24:45.843Z,121.68
2022-12-31T23:27:12.930Z,130.73
2022-12-31T23:29:46.173Z,104.47
2022-12-31T23:32:15.910Z,86.20
2022-12-31T23:34:43.326Z,88.85
2022-12-31T23:37:10.841Z,93.35
2022-12-31T23:39:37.864Z,84.45
2022-12-31T23:42:04.892Z,78.72
2022-12-31T23:44:32.023Z,94.22
2022-12-31T23:46:59.006Z,101.28
2022-12-31T23:49:26.056Z,103.38
2022-12-31T23:51:53.043Z,101.78
2022-12-31T23:54:20.050Z,95.22
2022-12-31T23:56:47.050Z,104.63
2022-12-31T23:59:14.078Z,111.30
